< < Back
Terminal Aerodrome Forecast


Current Version              Previous Versions:   1  2  3  4  5  6  7  8  9  

Terminal Aerodrome Forecast

464
FTUS44 KOHX 131722
TAFCSV
TAF
KCSV 131722Z 1318/1418 36008G15KT P6SM BKN250
     FM140000 VRB03KT P6SM OVC200
     FM141500 14008KT P6SM OVC060=

Latest METAR

006
SAUS70 KWBC 131700 RRX
MTRCSV
METAR KCSV 132053Z AUTO 01009KT 330V030 10SM CLR M02/M15 A3036 RMK AO2
SLP303 T10221150 56010


USA.gov is the U.S. government's official web portal to all federal, state and local government web resources and services.